createdAt,value
2019-03-21T00:01:34.592Z,85.50
2019-03-21T00:05:40.215Z,85.90
2019-03-21T00:10:18.092Z,85.90
2019-03-21T00:14:45.349Z,85.80
2019-03-21T00:18:50.790Z,85.20
2019-03-21T00:22:56.286Z,85.20
2019-03-21T00:27:01.827Z,85.00
2019-03-21T00:31:07.397Z,87.10
2019-03-21T00:35:12.814Z,86.50
2019-03-21T00:39:18.306Z,86.40
2019-03-21T00:43:23.862Z,86.90
2019-03-21T00:47:29.311Z,86.50
2019-03-21T00:51:36.489Z,86.60
2019-03-21T00:55:44.382Z,87.20
2019-03-21T00:59:50.481Z,87.10
2019-03-21T01:03:57.290Z,86.50
2019-03-21T01:08:03.506Z,87.10
2019-03-21T01:12:10.618Z,87.30
2019-03-21T01:16:21.679Z,87.90
2019-03-21T01:20:28.835Z,88.30
2019-03-21T01:24:34.398Z,87.80
2019-03-21T01:28:39.834Z,88.30
2019-03-21T01:32:45.425Z,88.30
2019-03-21T01:36:53.118Z,88.20
2019-03-21T01:40:59.974Z,89.30
2019-03-21T01:45:13.684Z,88.80
2019-03-21T01:49:24.260Z,88.90
2019-03-21T01:53:37.658Z,88.80
2019-03-21T01:57:53.289Z,89.40
2019-03-21T02:02:08.797Z,89.50
2019-03-21T02:06:20.579Z,89.80
2019-03-21T02:10:33.577Z,89.20
2019-03-21T02:14:52.146Z,90.00
2019-03-21T02:18:58.525Z,90.00
2019-03-21T02:23:09.499Z,90.20
2019-03-21T02:27:15.463Z,90.00
2019-03-21T02:31:21.057Z,90.20
2019-03-21T02:35:26.512Z,90.10
2019-03-21T02:39:32.390Z,90.60
2019-03-21T02:43:38.226Z,90.60
2019-03-21T02:47:43.699Z,90.70
2019-03-21T02:51:49.279Z,90.30
2019-03-21T02:55:54.859Z,90.60
2019-03-21T03:00:00.442Z,90.50
2019-03-21T03:04:06.241Z,90.50
2019-03-21T03:08:11.699Z,90.50
2019-03-21T03:12:17.275Z,90.50
2019-03-21T03:16:23.070Z,90.50
2019-03-21T03:20:47.221Z,90.90
2019-03-21T03:24:52.689Z,90.80
2019-03-21T03:28:58.221Z,91.10
2019-03-21T03:33:03.647Z,91.20
2019-03-21T03:37:09.242Z,90.80
2019-03-21T03:41:14.785Z,91.10
2019-03-21T03:45:36.655Z,91.00
2019-03-21T03:49:30.157Z,91.20
2019-03-21T03:53:35.782Z,91.20
2019-03-21T03:57:41.405Z,91.10
2019-03-21T04:01:46.964Z,91.00
2019-03-21T04:05:52.513Z,91.20
2019-03-21T04:09:58.186Z,91.30
2019-03-21T04:14:03.917Z,91.40
2019-03-21T04:18:09.355Z,91.50
2019-03-21T04:22:14.790Z,91.00
2019-03-21T04:26:24.099Z,91.40
2019-03-21T04:30:29.561Z,92.00
2019-03-21T04:34:41.897Z,91.80
2019-03-21T04:38:47.596Z,92.10
2019-03-21T04:42:53.144Z,92.10
2019-03-21T04:46:58.586Z,92.10
2019-03-21T04:51:04.000Z,91.80
2019-03-21T04:55:10.799Z,91.80
2019-03-21T04:59:16.256Z,92.20
2019-03-21T05:03:22.731Z,92.30
2019-03-21T05:07:28.499Z,92.10
2019-03-21T05:11:34.593Z,92.20
2019-03-21T05:15:41.101Z,92.90
2019-03-21T05:19:46.875Z,92.90
2019-03-21T05:23:52.672Z,92.20
2019-03-21T05:27:58.326Z,92.00
2019-03-21T05:32:04.235Z,91.50
2019-03-21T05:36:10.134Z,91.40
2019-03-21T05:40:16.431Z,91.60
2019-03-21T05:44:33.178Z,91.40
2019-03-21T05:48:38.920Z,91.20
2019-03-21T05:52:44.888Z,91.70
2019-03-21T05:56:50.734Z,91.90
2019-03-21T06:00:56.637Z,91.30
2019-03-21T06:05:19.234Z,91.40
2019-03-21T06:10:09.572Z,91.10
2019-03-21T06:14:54.560Z,91.40
2019-03-21T06:19:17.935Z,91.40
2019-03-21T06:23:54.591Z,91.30
2019-03-21T06:28:00.717Z,91.20
2019-03-21T06:32:06.389Z,91.20
2019-03-21T06:36:11.814Z,90.90
2019-03-21T06:40:18.104Z,91.20
2019-03-21T06:44:23.744Z,91.00
2019-03-21T06:48:29.186Z,91.10
2019-03-21T06:52:34.641Z,90.70
2019-03-21T06:56:40.281Z,90.60
2019-03-21T07:00:45.710Z,89.50
2019-03-21T07:04:51.439Z,88.30
2019-03-21T07:08:56.919Z,86.20
2019-03-21T07:13:02.395Z,84.30
2019-03-21T07:17:08.520Z,84.40
2019-03-21T07:21:13.997Z,82.70
2019-03-21T07:25:19.594Z,81.70
2019-03-21T07:29:25.215Z,80.40
2019-03-21T07:33:30.917Z,79.10
2019-03-21T07:37:36.594Z,76.70
2019-03-21T07:41:42.023Z,73.40
2019-03-21T07:45:48.124Z,72.10
2019-03-21T07:49:53.897Z,67.90
2019-03-21T07:53:59.752Z,62.60
2019-03-21T07:58:14.180Z,60.40
2019-03-21T08:02:24.814Z,59.30
2019-03-21T08:06:38.330Z,57.50
2019-03-21T08:10:44.760Z,54.00
2019-03-21T08:14:52.356Z,51.10
2019-03-21T08:18:58.354Z,49.30
2019-03-21T08:23:04.182Z,49.40
2019-03-21T08:27:10.039Z,47.40
2019-03-21T08:31:19.370Z,44.70
2019-03-21T08:35:24.825Z,43.10
2019-03-21T08:39:30.466Z,40.60
2019-03-21T08:43:35.967Z,37.90
2019-03-21T08:47:41.439Z,36.50
2019-03-21T08:51:46.899Z,31.90
2019-03-21T08:55:52.357Z,30.10
2019-03-21T08:59:58.089Z,30.70
2019-03-21T09:04:03.539Z,29.50
2019-03-21T09:08:09.023Z,28.50
2019-03-21T09:12:14.619Z,27.20
2019-03-21T09:16:20.142Z,25.60
2019-03-21T09:20:25.772Z,24.90
2019-03-21T09:24:31.371Z,24.50
2019-03-21T09:28:36.817Z,24.60
2019-03-21T09:32:42.353Z,25.00
2019-03-21T09:36:47.853Z,22.90
2019-03-21T09:40:53.525Z,21.90
2019-03-21T09:44:58.980Z,22.20
2019-03-21T09:49:04.758Z,21.50
2019-03-21T09:53:10.222Z,21.50
2019-03-21T09:57:22.984Z,19.50
2019-03-21T10:01:34.410Z,21.80
2019-03-21T10:05:40.544Z,21.70
2019-03-21T10:09:46.635Z,20.80
2019-03-21T10:13:52.435Z,19.20
2019-03-21T10:17:57.959Z,19.40
2019-03-21T10:22:03.479Z,18.80
2019-03-21T10:26:08.889Z,18.60
2019-03-21T10:30:20.093Z,17.90
2019-03-21T10:34:27.421Z,18.20
2019-03-21T10:38:32.849Z,18.60
2019-03-21T10:42:38.314Z,19.00
2019-03-21T10:46:43.752Z,18.10
2019-03-21T10:50:50.188Z,17.90
2019-03-21T10:54:55.817Z,17.70
2019-03-21T10:59:01.252Z,18.40
2019-03-21T11:03:07.420Z,17.20
2019-03-21T11:07:10.386Z,17.70
2019-03-21T11:11:15.814Z,17.40
2019-03-21T11:15:21.378Z,16.90
2019-03-21T11:19:27.221Z,17.50
2019-03-21T11:23:32.724Z,16.30
2019-03-21T11:27:38.156Z,16.20
2019-03-21T11:31:43.627Z,17.10
2019-03-21T11:35:49.102Z,17.60
2019-03-21T11:39:54.559Z,16.60
2019-03-21T11:44:00.028Z,16.80
2019-03-21T11:48:05.948Z,17.10
2019-03-21T11:52:18.070Z,16.30
2019-03-21T11:56:18.538Z,15.00
2019-03-21T12:00:24.221Z,15.50
2019-03-21T12:04:29.657Z,15.50
2019-03-21T12:08:35.211Z,16.30
2019-03-21T12:12:40.685Z,14.80
2019-03-21T12:16:46.284Z,16.00
2019-03-21T12:20:51.850Z,15.10
2019-03-21T12:24:57.349Z,14.80
2019-03-21T12:29:02.815Z,14.40
2019-03-21T12:33:09.006Z,13.80
2019-03-21T12:37:14.474Z,13.20
2019-03-21T12:41:20.262Z,13.70
2019-03-21T12:45:25.708Z,14.70
2019-03-21T12:49:31.178Z,15.10
2019-03-21T12:53:36.613Z,14.90
2019-03-21T12:57:45.758Z,12.60
2019-03-21T13:01:56.943Z,13.40
2019-03-21T13:06:02.520Z,13.70
2019-03-21T13:10:08.074Z,13.40
2019-03-21T13:14:13.586Z,13.00
2019-03-21T13:18:24.996Z,12.50
2019-03-21T13:22:37.591Z,13.30
2019-03-21T13:26:49.967Z,14.50
2019-03-21T13:30:55.722Z,14.50
2019-03-21T13:35:07.199Z,16.00
2019-03-21T13:39:17.388Z,14.50
2019-03-21T13:43:23.063Z,13.90
2019-03-21T13:47:28.524Z,13.40
2019-03-21T13:51:33.957Z,13.60
2019-03-21T13:55:39.402Z,14.80
2019-03-21T13:59:45.104Z,12.10
2019-03-21T14:03:56.962Z,12.40
2019-03-21T14:08:03.308Z,12.40
2019-03-21T14:12:08.795Z,12.70
2019-03-21T14:16:18.042Z,14.90
2019-03-21T14:20:30.893Z,13.70
2019-03-21T14:24:40.656Z,13.70
2019-03-21T14:28:51.514Z,13.80
2019-03-21T14:33:00.945Z,15.00
2019-03-21T14:37:08.514Z,15.00
2019-03-21T14:41:13.937Z,15.00
2019-03-21T14:45:20.732Z,13.90
2019-03-21T14:49:27.514Z,13.90
2019-03-21T14:53:33.162Z,15.10
2019-03-21T14:57:38.612Z,16.60
2019-03-21T15:01:44.039Z,18.80
2019-03-21T15:05:49.640Z,21.20
2019-03-21T15:09:55.104Z,22.50
2019-03-21T15:14:00.690Z,23.90
2019-03-21T15:18:06.288Z,24.90
2019-03-21T15:22:11.939Z,26.50
2019-03-21T15:26:17.373Z,28.30
2019-03-21T15:30:22.836Z,27.50
2019-03-21T15:34:28.491Z,28.10
2019-03-21T15:38:34.014Z,28.70
2019-03-21T15:42:40.057Z,28.60
2019-03-21T15:46:45.554Z,29.20
2019-03-21T15:50:51.111Z,28.90
2019-03-21T15:54:56.627Z,30.90
2019-03-21T15:59:02.127Z,30.70
2019-03-21T16:03:08.493Z,31.40
2019-03-21T16:07:15.037Z,33.00
2019-03-21T16:11:20.492Z,32.90
2019-03-21T16:15:26.024Z,31.10
2019-03-21T16:19:31.800Z,31.50
2019-03-21T16:23:37.264Z,32.70
2019-03-21T16:27:43.236Z,34.80
2019-03-21T16:31:48.827Z,36.60
2019-03-21T16:35:55.435Z,39.20
2019-03-21T16:40:01.034Z,40.10
2019-03-21T16:44:08.753Z,40.80
2019-03-21T16:48:20.111Z,42.60
2019-03-21T16:52:25.921Z,43.90
2019-03-21T16:56:31.598Z,44.70
2019-03-21T17:00:37.365Z,45.30
2019-03-21T17:04:46.131Z,46.60
2019-03-21T17:08:52.248Z,47.00
2019-03-21T17:12:59.423Z,48.80
2019-03-21T17:17:05.371Z,48.70
2019-03-21T17:21:10.895Z,49.70
2019-03-21T17:25:22.293Z,49.50
2019-03-21T17:29:28.902Z,50.80
2019-03-21T17:33:34.569Z,51.70
2019-03-21T17:37:40.028Z,52.20
2019-03-21T17:41:45.608Z,54.00
2019-03-21T17:45:51.084Z,53.60
2019-03-21T17:49:56.792Z,53.90
2019-03-21T17:54:02.322Z,54.20
2019-03-21T17:58:08.065Z,55.40
2019-03-21T18:02:13.891Z,55.40
2019-03-21T18:06:19.462Z,55.90
2019-03-21T18:10:30.166Z,56.80
2019-03-21T18:14:35.800Z,57.80
2019-03-21T18:18:41.591Z,58.00
2019-03-21T18:22:47.075Z,57.90
2019-03-21T18:26:52.884Z,59.50
2019-03-21T18:30:58.695Z,59.10
2019-03-21T18:35:04.359Z,59.20
2019-03-21T18:39:10.593Z,60.60
2019-03-21T18:43:16.427Z,60.60
2019-03-21T18:47:22.095Z,61.10
2019-03-21T18:51:28.313Z,61.60
2019-03-21T18:55:34.112Z,62.80
2019-03-21T18:59:39.789Z,63.50
2019-03-21T19:03:45.207Z,63.70
2019-03-21T19:07:51.020Z,65.00
2019-03-21T19:11:56.442Z,65.00
2019-03-21T19:16:01.870Z,65.70
2019-03-21T19:20:08.629Z,65.80
2019-03-21T19:24:14.495Z,66.20
2019-03-21T19:28:19.931Z,66.90
2019-03-21T19:32:25.460Z,66.80
2019-03-21T19:36:30.943Z,66.70
2019-03-21T19:40:36.471Z,66.70
2019-03-21T19:44:42.622Z,67.40
2019-03-21T19:48:50.656Z,68.70
2019-03-21T19:52:56.928Z,68.50
2019-03-21T19:57:02.704Z,69.40
2019-03-21T20:01:08.289Z,69.20
2019-03-21T20:05:14.239Z,69.40
2019-03-21T20:09:19.708Z,70.10
2019-03-21T20:13:25.239Z,70.50
2019-03-21T20:17:30.697Z,71.10
2019-03-21T20:21:47.308Z,70.90
2019-03-21T20:25:43.550Z,71.60
2019-03-21T20:29:49.051Z,71.90
2019-03-21T20:33:54.596Z,72.30
2019-03-21T20:38:00.063Z,73.00
2019-03-21T20:42:05.587Z,73.10
2019-03-21T20:46:11.179Z,73.20
2019-03-21T20:50:16.700Z,73.40
2019-03-21T20:54:22.295Z,74.10
2019-03-21T20:58:27.830Z,74.60
2019-03-21T21:02:33.383Z,74.60
2019-03-21T21:06:39.154Z,75.30
2019-03-21T21:10:44.596Z,75.00
2019-03-21T21:14:50.226Z,75.70
2019-03-21T21:18:55.678Z,75.60
2019-03-21T21:23:02.326Z,76.60
2019-03-21T21:27:12.850Z,76.60
2019-03-21T21:31:18.598Z,76.90
2019-03-21T21:35:24.104Z,77.30
2019-03-21T21:39:30.629Z,77.30
2019-03-21T21:43:36.104Z,77.80
2019-03-21T21:47:41.683Z,77.40
2019-03-21T21:51:47.107Z,78.00
2019-03-21T21:55:52.727Z,78.70
2019-03-21T21:59:58.167Z,79.00
2019-03-21T22:04:04.894Z,79.30
2019-03-21T22:08:10.901Z,79.50
2019-03-21T22:12:16.343Z,79.40
2019-03-21T22:16:21.803Z,80.00
2019-03-21T22:20:27.401Z,80.90
2019-03-21T22:24:32.862Z,80.40
2019-03-21T22:28:38.396Z,80.20
2019-03-21T22:32:43.962Z,81.00
2019-03-21T22:36:49.853Z,80.70
2019-03-21T22:40:55.317Z,81.20
2019-03-21T22:45:00.753Z,81.90
2019-03-21T22:49:06.322Z,82.00
2019-03-21T22:53:11.769Z,82.40
2019-03-21T22:57:17.434Z,82.50
2019-03-21T23:01:22.968Z,82.70
2019-03-21T23:05:28.570Z,83.10
2019-03-21T23:09:34.053Z,82.90
2019-03-21T23:13:40.701Z,84.40
2019-03-21T23:17:46.135Z,83.90
2019-03-21T23:21:51.826Z,83.70
2019-03-21T23:25:57.295Z,84.30
2019-03-21T23:30:02.716Z,84.30
2019-03-21T23:34:08.149Z,84.30
2019-03-21T23:38:13.631Z,84.20
2019-03-21T23:42:19.036Z,84.20
2019-03-21T23:46:24.569Z,84.20
2019-03-21T23:50:30.077Z,84.90
2019-03-21T23:54:35.532Z,84.30
2019-03-21T23:58:40.972Z,85.50
